Time;durP1;ratioP1;P1;durP2;ratioP2;P2;SDS_P1;SDS_P2;PMS_P1;PMS_P2;Temp;Humidity;BMP_temperature;BMP_pressure;BME280_temperature;BME280_humidity;BME280_pressure;Samples;Min_cycle;Max_cycle;Signal;HPM_P1;HPM_P2
2024/02/14 00:00:30;;;;;;;4.7;3.4;;;;;;;2.87;79.3916;942.0547;;;;
2024/02/14 00:02:56;;;;;;;5.1;3.2;;;;;;;2.91;79.25488;942.0539;;;;
2024/02/14 00:05:21;;;;;;;4.3;3.2;;;;;;;2.78;79.59961;942.0408;;;;
2024/02/14 00:07:46;;;;;;;5.1;3.1;;;;;;;2.69;79.61621;942.0424;;;;
2024/02/14 00:10:11;;;;;;;5.5;3.3;;;;;;;2.67;79.65918;942.026;;;;
2024/02/14 00:12:36;;;;;;;4.5;2.8;;;;;;;2.8;79.34473;942.0692;;;;
2024/02/14 00:15:02;;;;;;;3.9;2.6;;;;;;;2.89;79.12793;942.0798;;;;
2024/02/14 00:17:27;;;;;;;2.3;2;;;;;;;2.92;78.93066;942.0971;;;;
2024/02/14 00:19:52;;;;;;;2.7;2;;;;;;;2.97;78.52441;942.0369;;;;
2024/02/14 00:22:18;;;;;;;2.9;1.8;;;;;;;2.92;78.39258;942.027;;;;
2024/02/14 00:24:42;;;;;;;3;1.8;;;;;;;2.7;78.7002;941.9913;;;;
2024/02/14 00:27:08;;;;;;;2.7;1.8;;;;;;;2.75;78.60742;942.0442;;;;
2024/02/14 00:29:34;;;;;;;2.6;1.5;;;;;;;2.67;78.51367;941.9874;;;;
2024/02/14 00:31:58;;;;;;;3.9;1.8;;;;;;;2.8;78.11133;942.0197;;;;
2024/02/14 00:34:23;;;;;;;6.8;3.3;;;;;;;2.76;77.52344;941.9836;;;;
2024/02/14 00:36:52;;;;;;;14.1;11.6;;;;;;;2.86;77.48535;941.9922;;;;
2024/02/14 00:39:15;;;;;;;5.9;4.5;;;;;;;2.72;78.20996;942.0054;;;;
2024/02/14 00:41:40;;;;;;;6.3;4;;;;;;;2.69;78.43945;942.0463;;;;
2024/02/14 00:44:05;;;;;;;3.9;3.1;;;;;;;2.64;78.41797;942.0826;;;;
2024/02/14 00:46:30;;;;;;;4.1;2.6;;;;;;;2.84;78.17578;942.1483;;;;
2024/02/14 00:48:56;;;;;;;2.4;2;;;;;;;2.79;78.06445;942.1208;;;;
2024/02/14 00:51:21;;;;;;;3.5;2.2;;;;;;;2.9;77.88477;942.1774;;;;
2024/02/14 00:53:46;;;;;;;4.1;2.2;;;;;;;2.96;77.7168;942.1917;;;;
2024/02/14 00:56:11;;;;;;;3.6;2.2;;;;;;;2.86;78.05762;942.1951;;;;
2024/02/14 00:58:36;;;;;;;3.2;2.2;;;;;;;2.84;78.06348;942.1515;;;;
2024/02/14 01:01:02;;;;;;;2.7;2.2;;;;;;;2.81;78.0918;942.1944;;;;
2024/02/14 01:03:26;;;;;;;2.9;2.1;;;;;;;2.69;78.13672;942.2257;;;;
2024/02/14 01:05:51;;;;;;;2.6;1.8;;;;;;;2.67;78.22266;942.2742;;;;
2024/02/14 01:08:17;;;;;;;3.4;1.8;;;;;;;2.65;78.27539;942.2687;;;;
2024/02/14 01:10:42;;;;;;;3;2;;;;;;;2.58;78.19434;942.2958;;;;
2024/02/14 01:13:07;;;;;;;2.2;1.5;;;;;;;2.55;77.47266;942.3739;;;;
2024/02/14 01:15:33;;;;;;;1.8;1.7;;;;;;;2.64;76.92676;942.3734;;;;
2024/02/14 01:17:57;;;;;;;3.8;1.9;;;;;;;2.51;77.54297;942.3303;;;;
2024/02/14 01:20:22;;;;;;;4.1;1.9;;;;;;;2.54;77.48242;942.3681;;;;
2024/02/14 01:22:48;;;;;;;2.6;1.6;;;;;;;2.55;77.74316;942.3859;;;;
2024/02/14 01:25:12;;;;;;;2.5;1.7;;;;;;;2.83;76.84082;942.3786;;;;
2024/02/14 01:27:37;;;;;;;1.6;1.5;;;;;;;2.89;76.62695;942.3755;;;;
2024/02/14 01:30:04;;;;;;;2.3;1.6;;;;;;;2.64;76.56836;942.3836;;;;
2024/02/14 01:32:29;;;;;;;2.7;1.9;;;;;;;2.74;76.7002;942.3475;;;;
2024/02/14 01:34:53;;;;;;;2.5;1.8;;;;;;;2.83;76.70313;942.3948;;;;
2024/02/14 01:37:20;;;;;;;2.6;1.9;;;;;;;2.8;76.86719;942.4019;;;;
2024/02/14 01:39:43;;;;;;;2.7;1.8;;;;;;;2.8;77.1377;942.4138;;;;
2024/02/14 01:42:08;;;;;;;2.2;1.8;;;;;;;2.85;76.97754;942.4738;;;;
2024/02/14 01:44:33;;;;;;;1.9;1.4;;;;;;;2.75;77.21777;942.3716;;;;
2024/02/14 01:46:58;;;;;;;1.7;1.6;;;;;;;2.71;77.2207;942.3364;;;;
2024/02/14 01:49:23;;;;;;;2.2;1.7;;;;;;;2.65;77.13184;942.4604;;;;
2024/02/14 01:51:48;;;;;;;1.7;1.5;;;;;;;2.57;77.67773;942.4841;;;;
2024/02/14 01:54:17;;;;;;;1.5;1.4;;;;;;;2.6;77.61523;942.4358;;;;
2024/02/14 01:56:39;;;;;;;2.1;1.4;;;;;;;2.49;77.8418;942.4844;;;;
2024/02/14 01:59:05;;;;;;;2.4;1.6;;;;;;;2.52;76.90723;942.4417;;;;
2024/02/14 02:01:30;;;;;;;2.3;1.8;;;;;;;2.41;77.31152;942.4278;;;;
2024/02/14 02:03:55;;;;;;;1.6;1.5;;;;;;;2.38;77.62012;942.4528;;;;
2024/02/14 02:06:20;;;;;;;3.6;1.7;;;;;;;2.24;77.89844;942.43;;;;
2024/02/14 02:08:45;;;;;;;3.4;1.7;;;;;;;2.4;77.2002;942.4666;;;;
2024/02/14 02:11:10;;;;;;;4.1;2;;;;;;;2.37;77.40625;942.4406;;;;
2024/02/14 02:13:36;;;;;;;2.7;1.9;;;;;;;2.22;78.00684;942.4677;;;;
2024/02/14 02:16:04;;;;;;;3.2;2;;;;;;;2.49;77.61816;942.4708;;;;
2024/02/14 02:18:27;;;;;;;3.2;2.1;;;;;;;2.56;77.38477;942.493;;;;
2024/02/14 02:20:51;;;;;;;3.3;2;;;;;;;2.54;77.52539;942.4905;;;;
2024/02/14 02:23:16;;;;;;;2.8;2.2;;;;;;;2.52;77.71289;942.5336;;;;
2024/02/14 02:25:41;;;;;;;4.1;1.8;;;;;;;2.38;78.08008;942.5345;;;;
2024/02/14 02:28:08;;;;;;;4.5;1.7;;;;;;;2.24;77.54883;942.5272;;;;
2024/02/14 02:30:35;;;;;;;2;1.6;;;;;;;2.19;77.73145;942.538;;;;
2024/02/14 02:32:58;;;;;;;2.5;1.7;;;;;;;2.24;77.77441;942.5613;;;;
2024/02/14 02:35:23;;;;;;;2.3;1.7;;;;;;;2.24;77.86426;942.5541;;;;
2024/02/14 02:37:47;;;;;;;2;1.6;;;;;;;2.26;78.0918;942.5676;;;;
2024/02/14 02:40:12;;;;;;;2.6;1.8;;;;;;;2.4;77.7373;942.5982;;;;
2024/02/14 02:42:38;;;;;;;2.2;1.7;;;;;;;2.46;77.41113;942.5653;;;;
2024/02/14 02:45:05;;;;;;;3.4;2.1;;;;;;;2.51;77.30762;942.5095;;;;
2024/02/14 02:47:27;;;;;;;3;2.1;;;;;;;2.44;77.63086;942.4637;;;;
2024/02/14 02:49:53;;;;;;;3.8;2.3;;;;;;;2.4;77.47852;942.5002;;;;
2024/02/14 02:52:18;;;;;;;4.3;3.4;;;;;;;2.49;76.96777;942.5708;;;;
2024/02/14 02:54:43;;;;;;;7.5;5.9;;;;;;;2.55;76.55371;942.561;;;;
2024/02/14 02:57:09;;;;;;;18.5;16.4;;;;;;;2.52;75.98633;942.5603;;;;
2024/02/14 02:59:35;;;;;;;3.5;3;;;;;;;2.54;75.45215;942.6688;;;;
2024/02/14 03:01:59;;;;;;;2.2;1.6;;;;;;;2.44;76.06152;942.6973;;;;
2024/02/14 03:04:24;;;;;;;1.7;1.5;;;;;;;2.29;75.60059;942.6847;;;;
2024/02/14 03:06:49;;;;;;;1.9;1.5;;;;;;;2.25;76.00684;942.6691;;;;
2024/02/14 03:09:14;;;;;;;1.4;1.3;;;;;;;2.44;75.44727;942.6771;;;;
2024/02/14 03:11:39;;;;;;;2.5;1.5;;;;;;;2.31;75.97168;942.6895;;;;
2024/02/14 03:14:05;;;;;;;2.3;1.8;;;;;;;2.42;75.90332;942.6108;;;;
2024/02/14 03:16:30;;;;;;;1.5;1.3;;;;;;;2.39;75.96387;942.6704;;;;
2024/02/14 03:18:55;;;;;;;1.7;1.4;;;;;;;2.18;76.54297;942.6978;;;;
2024/02/14 03:21:20;;;;;;;2.4;1.4;;;;;;;2.09;76.34766;942.6622;;;;
2024/02/14 03:23:45;;;;;;;2.9;1.5;;;;;;;2.25;76.04102;942.5773;;;;
2024/02/14 03:26:10;;;;;;;3.6;1.7;;;;;;;2.31;75.71484;942.5732;;;;
2024/02/14 03:28:35;;;;;;;5.8;3.1;;;;;;;2.43;75.40039;942.6456;;;;
2024/02/14 03:31:00;;;;;;;4.6;2.5;;;;;;;2.31;75.41211;942.6509;;;;
2024/02/14 03:33:25;;;;;;;7.2;2.7;;;;;;;2.32;75.54785;942.564;;;;
2024/02/14 03:35:50;;;;;;;5.8;2.8;;;;;;;2.4;75.39453;942.5787;;;;
2024/02/14 03:38:16;;;;;;;4.8;2.8;;;;;;;2.31;75.96094;942.5848;;;;
2024/02/14 03:40:41;;;;;;;27.3;22.1;;;;;;;2.38;76.1416;942.6618;;;;
2024/02/14 03:44:22;;;;;;;4.2;3.1;;;;;;;2.26;75.77344;942.6298;;;;
2024/02/14 03:46:48;;;;;;;4.6;2.1;;;;;;;2.11;75.81445;942.642;;;;
2024/02/14 03:49:13;;;;;;;1.9;1.5;;;;;;;2.07;75.32422;942.6107;;;;
2024/02/14 03:51:38;;;;;;;2.6;1.7;;;;;;;2.26;75.04395;942.7057;;;;
2024/02/14 03:54:03;;;;;;;3.1;2.1;;;;;;;2.23;75.35449;942.6959;;;;
2024/02/14 03:56:29;;;;;;;2.9;2;;;;;;;2.31;75.19922;942.6077;;;;
2024/02/14 03:58:53;;;;;;;1.8;1.6;;;;;;;2.37;74.82031;942.6342;;;;
2024/02/14 04:02:28;;;;;;;3.5;2.1;;;;;;;1.95;75.67188;942.6362;;;;
2024/02/14 04:04:52;;;;;;;2.8;1.9;;;;;;;2.11;75.10938;942.5416;;;;
2024/02/14 04:07:17;;;;;;;2.2;1.4;;;;;;;2.23;74.21094;942.6298;;;;
2024/02/14 04:09:42;;;;;;;1.6;1.4;;;;;;;2.14;74.08301;942.6794;;;;
2024/02/14 04:12:08;;;;;;;1.6;1.4;;;;;;;2.16;74.24414;942.6483;;;;
2024/02/14 04:14:32;;;;;;;2.5;1.5;;;;;;;2.21;74.0957;942.6171;;;;
2024/02/14 04:16:58;;;;;;;2.6;1.7;;;;;;;2.12;73.76758;942.56;;;;
2024/02/14 04:19:23;;;;;;;2.2;1.9;;;;;;;2.08;74.50977;942.6217;;;;
2024/02/14 04:21:48;;;;;;;3.7;2.3;;;;;;;1.93;75.82617;942.5912;;;;
2024/02/14 04:24:13;;;;;;;4;2.3;;;;;;;1.95;75.72949;942.5154;;;;
2024/02/14 04:26:39;;;;;;;3.5;2.3;;;;;;;2.13;75.67285;942.5975;;;;
2024/02/14 04:29:03;;;;;;;3.7;2.8;;;;;;;2.06;76.01758;942.557;;;;
2024/02/14 04:31:29;;;;;;;5.7;2.8;;;;;;;1.98;76.07031;942.5522;;;;
2024/02/14 04:33:54;;;;;;;3.6;2.4;;;;;;;2.26;75.19141;942.5316;;;;
2024/02/14 04:36:18;;;;;;;4.6;2.8;;;;;;;2.15;75.77637;942.4128;;;;
2024/02/14 04:38:44;;;;;;;5;2.9;;;;;;;2.19;75.37793;942.5386;;;;
2024/02/14 04:41:10;;;;;;;4.1;3;;;;;;;2.23;75.54297;942.4814;;;;
2024/02/14 04:43:34;;;;;;;3.3;2.1;;;;;;;2.3;75.25391;942.4059;;;;
2024/02/14 04:45:59;;;;;;;3.2;2;;;;;;;2.19;75.70313;942.4114;;;;
2024/02/14 04:48:26;;;;;;;2.2;1.8;;;;;;;2.11;75.84863;942.4285;;;;
2024/02/14 04:50:49;;;;;;;2.8;1.8;;;;;;;2.19;75.53711;942.3463;;;;
2024/02/14 04:53:16;;;;;;;2.4;1.7;;;;;;;2.11;75.83594;942.4432;;;;
2024/02/14 04:55:40;;;;;;;1.9;1.4;;;;;;;2.12;75.81641;942.4626;;;;
2024/02/14 04:58:05;;;;;;;2.5;1.5;;;;;;;2.2;75.01367;942.4227;;;;
2024/02/14 05:00:29;;;;;;;3.6;1.9;;;;;;;2.38;75.20117;942.4553;;;;
2024/02/14 05:02:55;;;;;;;4.9;4.1;;;;;;;2.44;75.52441;942.4317;;;;
2024/02/14 05:05:20;;;;;;;5.8;4.9;;;;;;;2.49;75.88086;942.4246;;;;
2024/02/14 05:07:45;;;;;;;2.7;2;;;;;;;2.43;75.84863;942.3608;;;;
2024/02/14 05:10:10;;;;;;;2.2;1.5;;;;;;;2.38;75.7832;942.3572;;;;
2024/02/14 05:12:35;;;;;;;1.8;1.5;;;;;;;2.46;75.50684;942.2274;;;;
2024/02/14 05:15:00;;;;;;;2.1;1.4;;;;;;;2.52;74.48633;942.2933;;;;
2024/02/14 05:17:25;;;;;;;1.9;1.3;;;;;;;2.61;73.79688;942.3094;;;;
2024/02/14 05:19:50;;;;;;;2.2;1.4;;;;;;;2.64;73.51953;942.2728;;;;
2024/02/14 05:22:15;;;;;;;11.4;6.1;;;;;;;2.6;73.66992;942.2339;;;;
2024/02/14 05:24:40;;;;;;;4.1;2.9;;;;;;;2.62;72.99121;942.3633;;;;
2024/02/14 05:27:05;;;;;;;2;1.6;;;;;;;2.72;72.28906;942.3189;;;;
2024/02/14 05:29:30;;;;;;;1.8;1.1;;;;;;;2.75;72.27441;942.2341;;;;
2024/02/14 05:31:57;;;;;;;2.3;1.3;;;;;;;2.73;71.6084;942.4034;;;;
2024/02/14 05:34:21;;;;;;;2.9;1.3;;;;;;;2.79;71.41504;942.4069;;;;
2024/02/14 05:36:47;;;;;;;2.5;1.4;;;;;;;2.85;72.03027;942.4225;;;;
2024/02/14 05:39:12;;;;;;;2.7;1.8;;;;;;;2.85;72.82617;942.4492;;;;
2024/02/14 05:41:37;;;;;;;2;1.6;;;;;;;2.9;72.26563;942.425;;;;
2024/02/14 05:44:02;;;;;;;3.6;2.2;;;;;;;2.89;72.43164;942.4509;;;;
2024/02/14 05:46:27;;;;;;;3.3;1.8;;;;;;;2.89;72.51074;942.493;;;;
2024/02/14 05:48:52;;;;;;;2.5;1.9;;;;;;;2.79;73.04102;942.5193;;;;
2024/02/14 05:51:17;;;;;;;2;1.4;;;;;;;2.69;73.09277;942.527;;;;
2024/02/14 05:53:42;;;;;;;2.8;1.3;;;;;;;2.78;73.33105;942.5001;;;;
2024/02/14 05:56:07;;;;;;;2.6;1.4;;;;;;;2.84;73.14063;942.3977;;;;
2024/02/14 05:58:32;;;;;;;1.5;1.4;;;;;;;2.75;73.02539;942.4589;;;;
2024/02/14 06:00:58;;;;;;;2.5;1.2;;;;;;;2.84;72.97266;942.4153;;;;
2024/02/14 06:03:33;;;;;;;1.9;1.2;;;;;;;2.69;72.71191;942.5049;;;;
2024/02/14 06:05:58;;;;;;;2.5;1.9;;;;;;;2.83;72.0752;942.4934;;;;
2024/02/14 06:08:26;;;;;;;3.1;1.8;;;;;;;2.9;71.5918;942.4989;;;;
2024/02/14 06:10:49;;;;;;;1.6;1.3;;;;;;;2.94;71.08203;942.5577;;;;
2024/02/14 06:13:14;;;;;;;1.7;1.5;;;;;;;2.86;71.30566;942.5742;;;;
2024/02/14 06:15:39;;;;;;;1.4;1.3;;;;;;;2.98;69.83301;942.5582;;;;
2024/02/14 06:18:04;;;;;;;1.8;1.5;;;;;;;2.96;70.52637;942.6108;;;;
2024/02/14 06:20:29;;;;;;;2.8;2;;;;;;;2.92;70.98828;942.6694;;;;
2024/02/14 06:22:54;;;;;;;3.8;2.7;;;;;;;2.82;70.82617;942.6979;;;;
2024/02/14 06:25:19;;;;;;;3.5;2.3;;;;;;;2.91;71.29102;942.7148;;;;
2024/02/14 06:27:45;;;;;;;4.5;2.6;;;;;;;2.84;71.68262;942.7227;;;;
2024/02/14 06:30:10;;;;;;;4.7;4.2;;;;;;;2.9;71.97363;942.7836;;;;
2024/02/14 06:32:35;;;;;;;3.7;2.7;;;;;;;2.85;72.46875;942.8206;;;;
2024/02/14 06:35:00;;;;;;;7.6;4;;;;;;;3.08;71.78027;942.7698;;;;
2024/02/14 06:37:25;;;;;;;7.9;4.8;;;;;;;2.99;71.98926;942.8151;;;;
2024/02/14 06:39:50;;;;;;;6.5;3.7;;;;;;;2.87;72.39551;942.8759;;;;
2024/02/14 06:42:15;;;;;;;4.2;2.8;;;;;;;2.97;71.75977;942.9391;;;;
2024/02/14 06:44:40;;;;;;;4.5;2.6;;;;;;;2.99;71.87695;942.9528;;;;
2024/02/14 06:47:06;;;;;;;3.7;2.2;;;;;;;2.98;71.86426;943.1088;;;;
2024/02/14 06:49:31;;;;;;;2.6;2.3;;;;;;;3.03;71.61328;943.1294;;;;
2024/02/14 06:51:56;;;;;;;4.7;2.6;;;;;;;3.01;71.67773;943.1451;;;;
2024/02/14 06:54:21;;;;;;;4.7;3.2;;;;;;;3.05;71.9873;943.1917;;;;
2024/02/14 06:56:47;;;;;;;5.1;3.4;;;;;;;3.06;72.86328;943.1975;;;;
2024/02/14 06:59:12;;;;;;;6;3.6;;;;;;;3.03;72.83691;943.2606;;;;
2024/02/14 07:01:38;;;;;;;8.9;4.3;;;;;;;3.01;73.44043;943.2042;;;;
2024/02/14 07:04:03;;;;;;;5.3;4.1;;;;;;;3.09;73.45215;943.2688;;;;
2024/02/14 07:06:27;;;;;;;6.4;3.5;;;;;;;3;73.24707;943.1912;;;;
2024/02/14 07:08:52;;;;;;;4.7;3.2;;;;;;;3.07;73.20215;943.3036;;;;
2024/02/14 07:11:17;;;;;;;4.7;3;;;;;;;3.04;73.15332;943.2418;;;;
2024/02/14 07:13:42;;;;;;;5.4;3.1;;;;;;;3.03;73.43066;943.327;;;;
2024/02/14 07:16:07;;;;;;;5.3;2.7;;;;;;;3.02;73.02539;943.2972;;;;
2024/02/14 07:18:32;;;;;;;5.7;2.9;;;;;;;3.1;72.65625;943.2639;;;;
2024/02/14 07:20:57;;;;;;;4.6;3;;;;;;;3.21;72.38477;943.2519;;;;
2024/02/14 07:23:22;;;;;;;4.7;2.9;;;;;;;3.13;73.38281;943.2969;;;;
2024/02/14 07:25:47;;;;;;;10.9;6.1;;;;;;;3.2;73.06836;943.3234;;;;
2024/02/14 07:28:12;;;;;;;5.4;3.5;;;;;;;3.27;72.29297;943.3803;;;;
2024/02/14 07:30:37;;;;;;;6.9;3.2;;;;;;;3.22;72.64453;943.2994;;;;
2024/02/14 07:33:03;;;;;;;4.9;3.2;;;;;;;3.33;72.73242;943.3716;;;;
2024/02/14 07:35:29;;;;;;;5.6;4;;;;;;;3.36;73.4873;943.4551;;;;
2024/02/14 07:37:53;;;;;;;7.1;4.9;;;;;;;3.38;73.7041;943.5622;;;;
2024/02/14 07:40:18;;;;;;;8.1;4.2;;;;;;;3.39;73.38086;943.5441;;;;
2024/02/14 07:42:43;;;;;;;6.5;3.2;;;;;;;3.41;72.27148;943.6017;;;;
2024/02/14 07:45:08;;;;;;;5.3;3;;;;;;;3.37;71.77246;943.6697;;;;
2024/02/14 07:47:33;;;;;;;4.5;2.8;;;;;;;3.53;71.29297;943.6755;;;;
2024/02/14 07:49:59;;;;;;;6.1;2.8;;;;;;;3.54;71.10449;943.769;;;;
2024/02/14 07:52:23;;;;;;;5.6;3.2;;;;;;;3.53;71.00098;943.7519;;;;
2024/02/14 07:54:48;;;;;;;4;2.9;;;;;;;3.52;71.68457;943.7436;;;;
2024/02/14 07:57:13;;;;;;;5.1;3.6;;;;;;;3.59;71.54102;943.6746;;;;
2024/02/14 07:59:38;;;;;;;7.7;3.9;;;;;;;3.63;72.0625;943.6393;;;;
2024/02/14 08:02:04;;;;;;;9;5.4;;;;;;;3.75;71.13965;943.6675;;;;
2024/02/14 08:04:29;;;;;;;16.5;8.6;;;;;;;3.89;71.07227;943.7422;;;;
2024/02/14 08:06:54;;;;;;;13.5;7.7;;;;;;;3.93;71.31641;943.6669;;;;
2024/02/14 08:09:19;;;;;;;11;5.3;;;;;;;4.03;70.78027;943.6674;;;;
2024/02/14 08:11:44;;;;;;;9.2;6.4;;;;;;;3.99;70.53809;943.5662;;;;
2024/02/14 08:14:09;;;;;;;10.2;5.8;;;;;;;4.13;69.38184;943.6428;;;;
2024/02/14 08:16:35;;;;;;;10.1;5.3;;;;;;;4.19;69.0293;943.5929;;;;
2024/02/14 08:19:00;;;;;;;38.1;18.2;;;;;;;4.3;68.23828;943.5876;;;;
2024/02/14 08:21:25;;;;;;;37.9;17.6;;;;;;;4.42;67.2666;943.5371;;;;
2024/02/14 08:23:50;;;;;;;23.2;11.7;;;;;;;4.56;66.15039;943.4708;;;;
2024/02/14 08:26:15;;;;;;;34.4;17.3;;;;;;;4.72;63.95801;943.4216;;;;
2024/02/14 08:28:41;;;;;;;11;6.3;;;;;;;4.69;63.86328;943.4628;;;;
2024/02/14 08:31:05;;;;;;;10.6;4.9;;;;;;;4.79;65.0498;943.4362;;;;
2024/02/14 08:33:30;;;;;;;14.2;8;;;;;;;4.89;63.74609;943.3912;;;;
2024/02/14 08:35:57;;;;;;;13.3;6.9;;;;;;;4.96;63.32813;943.462;;;;
2024/02/14 08:38:21;;;;;;;8.5;4.8;;;;;;;4.98;62.91406;943.4666;;;;
2024/02/14 08:40:46;;;;;;;8.5;4.4;;;;;;;5.08;63.08691;943.4494;;;;
2024/02/14 08:43:11;;;;;;;5.4;3;;;;;;;5.29;63.18555;943.4852;;;;
2024/02/14 08:45:38;;;;;;;7;4;;;;;;;5.32;64.90527;943.5955;;;;
2024/02/14 08:48:02;;;;;;;6.5;4;;;;;;;5.39;64.32813;943.6494;;;;
2024/02/14 08:50:27;;;;;;;9.2;4.5;;;;;;;5.44;64.68555;943.548;;;;
2024/02/14 08:52:52;;;;;;;7.2;4.7;;;;;;;5.38;64.56445;943.5511;;;;
2024/02/14 08:55:18;;;;;;;8.7;5.1;;;;;;;5.42;64.47852;943.435;;;;
2024/02/14 08:57:42;;;;;;;8.2;5;;;;;;;5.43;65.41699;943.426;;;;
2024/02/14 09:00:07;;;;;;;8.5;4.8;;;;;;;5.42;65.12305;943.5236;;;;
2024/02/14 09:02:34;;;;;;;9.2;5.5;;;;;;;5.57;64.15234;943.4794;;;;
2024/02/14 09:04:58;;;;;;;8.1;4.4;;;;;;;5.68;63.15332;943.4797;;;;
2024/02/14 09:07:23;;;;;;;8.3;3.9;;;;;;;5.74;61.26563;943.4037;;;;
2024/02/14 09:09:48;;;;;;;5.5;2.4;;;;;;;5.95;60.0293;943.3231;;;;
2024/02/14 09:12:13;;;;;;;4.2;2;;;;;;;6.1;58.9541;943.3239;;;;
2024/02/14 09:14:38;;;;;;;2.3;1.7;;;;;;;6.51;59.2832;943.4291;;;;
2024/02/14 09:17:03;;;;;;;2.1;1.8;;;;;;;7.19;58.91211;943.2558;;;;
2024/02/14 09:19:29;;;;;;;2.5;1.6;;;;;;;7.87;53.85449;943.3256;;;;
2024/02/14 09:21:54;;;;;;;3.7;2.3;;;;;;;8.62;53.52734;943.3403;;;;
2024/02/14 09:24:20;;;;;;;2.6;2;;;;;;;8.81;51.93652;943.1595;;;;
2024/02/14 09:26:44;;;;;;;5;1.9;;;;;;;9.2;51.94824;943.1647;;;;
2024/02/14 09:29:09;;;;;;;2.7;1.6;;;;;;;10.3;51.3291;943.1406;;;;
2024/02/14 09:31:34;;;;;;;2.4;1.5;;;;;;;11.31;48.60059;942.9375;;;;
2024/02/14 09:33:59;;;;;;;2.8;1.4;;;;;;;12.22;46.35156;942.9934;;;;
2024/02/14 09:36:24;;;;;;;2.3;1.2;;;;;;;12.42;45.22754;943.1061;;;;
2024/02/14 09:38:49;;;;;;;2.7;1.4;;;;;;;11.88;45.42285;943.1534;;;;
2024/02/14 09:41:15;;;;;;;3.4;1.8;;;;;;;11.31;47.08887;943.0514;;;;
2024/02/14 09:43:40;;;;;;;4.2;2.2;;;;;;;10.93;45.87207;943.0341;;;;
2024/02/14 09:46:07;;;;;;;1.8;1.4;;;;;;;10.89;45.35254;943.0215;;;;
2024/02/14 09:48:30;;;;;;;2.1;1.3;;;;;;;11.09;47.55859;942.9881;;;;
2024/02/14 09:50:55;;;;;;;1.6;1;;;;;;;11.94;46.95215;943.0464;;;;
2024/02/14 09:53:20;;;;;;;2.1;1;;;;;;;12.86;42.69043;943.03;;;;
2024/02/14 09:55:45;;;;;;;2.7;1;;;;;;;13.48;39.84277;943.0851;;;;
2024/02/14 09:58:10;;;;;;;1;1;;;;;;;13.98;40.59082;943.1555;;;;
2024/02/14 10:00:35;;;;;;;1.4;1.2;;;;;;;14.62;38.74805;943.1756;;;;
2024/02/14 10:03:01;;;;;;;1.8;1.1;;;;;;;15.02;38.17188;943.037;;;;
2024/02/14 10:05:25;;;;;;;1.5;1.2;;;;;;;15.54;37.8252;943.111;;;;
2024/02/14 10:07:50;;;;;;;2;1.2;;;;;;;15.68;35.93066;943.1667;;;;
2024/02/14 10:10:16;;;;;;;2.7;1.9;;;;;;;15.54;37.96387;943.0676;;;;
2024/02/14 10:12:41;;;;;;;4.4;2.3;;;;;;;15.69;39.00391;943.1082;;;;
2024/02/14 10:15:06;;;;;;;4.1;2.1;;;;;;;15.96;37.66504;943.1727;;;;
2024/02/14 10:17:31;;;;;;;5.1;3;;;;;;;16.02;37.30078;943.0474;;;;
2024/02/14 10:19:58;;;;;;;2.2;1.8;;;;;;;16.27;35.18066;942.9116;;;;
2024/02/14 10:22:22;;;;;;;2.9;1.8;;;;;;;16.72;33.9082;942.9822;;;;
2024/02/14 10:24:47;;;;;;;2.5;1.9;;;;;;;16.64;33.86719;942.9342;;;;
2024/02/14 10:27:12;;;;;;;3.1;1.4;;;;;;;16.35;33.83398;942.9409;;;;
2024/02/14 10:29:37;;;;;;;1.9;1.1;;;;;;;16.1;33.69824;942.9274;;;;
2024/02/14 10:32:02;;;;;;;1.6;1.1;;;;;;;15.59;34.62988;942.9691;;;;
2024/02/14 10:34:27;;;;;;;1.8;1.2;;;;;;;15.37;35.44434;942.9617;;;;
2024/02/14 10:36:52;;;;;;;2.4;1.5;;;;;;;15.12;35.45801;942.899;;;;
2024/02/14 10:39:18;;;;;;;2.2;1.4;;;;;;;14.7;36.42773;942.9369;;;;
2024/02/14 10:41:43;;;;;;;5.8;4.2;;;;;;;14.49;37.18066;942.8946;;;;
2024/02/14 10:44:09;;;;;;;8.3;5.4;;;;;;;14.37;38.4834;942.8689;;;;
2024/02/14 10:46:33;;;;;;;6.3;4.4;;;;;;;14.18;39.07813;942.9001;;;;
2024/02/14 10:48:58;;;;;;;6.3;3.3;;;;;;;13.97;40.07227;942.8007;;;;
2024/02/14 10:51:23;;;;;;;1.7;1.6;;;;;;;13.84;38.42578;942.7594;;;;
2024/02/14 10:53:49;;;;;;;2.6;1.9;;;;;;;13.89;40.74219;942.7764;;;;
2024/02/14 10:56:13;;;;;;;4;1.9;;;;;;;14.26;40.25879;942.7645;;;;
2024/02/14 10:58:38;;;;;;;1.8;1;;;;;;;14.84;38.56055;942.7681;;;;
2024/02/14 11:01:03;;;;;;;1.9;1.1;;;;;;;15.3;38.9707;942.697;;;;
2024/02/14 11:03:29;;;;;;;2;1.3;;;;;;;15.54;36.64648;942.6903;;;;
2024/02/14 11:06:00;;;;;;;2.6;1.7;;;;;;;15.51;38.19238;942.6768;;;;
2024/02/14 11:08:20;;;;;;;3.2;1.3;;;;;;;15.03;37.31934;942.6064;;;;
2024/02/14 11:10:44;;;;;;;2.2;1.3;;;;;;;14.83;38.37598;942.6383;;;;
2024/02/14 11:13:09;;;;;;;2.6;1.3;;;;;;;14.76;38.2998;942.5658;;;;
2024/02/14 11:15:34;;;;;;;3.2;1.6;;;;;;;14.8;39.75586;942.7004;;;;
2024/02/14 11:17:59;;;;;;;3.9;1.6;;;;;;;14.83;41.14258;942.5508;;;;
2024/02/14 11:20:24;;;;;;;1.7;1.2;;;;;;;14.89;39.29102;942.6141;;;;
2024/02/14 11:22:49;;;;;;;4;1.5;;;;;;;14.77;39.71875;942.6362;;;;
2024/02/14 11:25:15;;;;;;;1.6;1.2;;;;;;;14.78;39.7998;942.6187;;;;
2024/02/14 11:27:39;;;;;;;1;0.8;;;;;;;14.84;38.7334;942.623;;;;
2024/02/14 11:30:05;;;;;;;2.1;1;;;;;;;14.9;37.97754;942.5195;;;;
2024/02/14 11:32:30;;;;;;;1;0.8;;;;;;;14.64;39.14258;942.4367;;;;
2024/02/14 11:34:55;;;;;;;1.9;1;;;;;;;14.64;39.85645;942.4959;;;;
2024/02/14 11:37:20;;;;;;;0.9;0.8;;;;;;;14.72;39.33398;942.4864;;;;
2024/02/14 11:39:45;;;;;;;2.2;0.7;;;;;;;14.76;40.35156;942.3653;;;;
2024/02/14 11:42:10;;;;;;;1.7;0.7;;;;;;;14.78;40.56152;942.363;;;;
2024/02/14 11:44:37;;;;;;;2.4;0.6;;;;;;;15.01;40.76758;942.3253;;;;
2024/02/14 11:47:00;;;;;;;2;0.7;;;;;;;15.13;40.62891;942.3063;;;;
2024/02/14 11:49:26;;;;;;;0.8;0.8;;;;;;;15.21;39.02051;942.254;;;;
2024/02/14 11:51:51;;;;;;;1.3;0.7;;;;;;;15.09;38.73242;942.0593;;;;
2024/02/14 11:54:17;;;;;;;1.1;0.7;;;;;;;15.12;40.41992;942.19;;;;
2024/02/14 11:56:41;;;;;;;0.6;0.6;;;;;;;15.03;39.83496;942.1845;;;;
2024/02/14 11:59:06;;;;;;;0.6;0.6;;;;;;;15.02;40.74414;942.0795;;;;
2024/02/14 12:01:31;;;;;;;0.7;0.7;;;;;;;15.01;41.24023;941.9885;;;;
2024/02/14 12:03:56;;;;;;;1.6;0.7;;;;;;;15;42.28809;942.0006;;;;
2024/02/14 12:06:22;;;;;;;0.7;0.6;;;;;;;14.98;41.75586;942.0022;;;;
2024/02/14 12:08:47;;;;;;;2.5;0.8;;;;;;;14.98;41.54785;941.9581;;;;
2024/02/14 12:11:12;;;;;;;0.6;0.6;;;;;;;14.86;42.60938;941.9495;;;;
2024/02/14 12:13:43;;;;;;;0.8;0.6;;;;;;;14.67;42.68359;941.9926;;;;
2024/02/14 12:16:02;;;;;;;0.8;0.6;;;;;;;14.74;42.30859;941.9741;;;;
2024/02/14 12:18:28;;;;;;;0.8;0.5;;;;;;;14.85;41.91602;941.9495;;;;
2024/02/14 12:20:52;;;;;;;1.3;0.7;;;;;;;15.06;42.49121;942.004;;;;
2024/02/14 12:23:18;;;;;;;0.4;0.4;;;;;;;15.05;41.55566;941.9519;;;;
2024/02/14 12:25:43;;;;;;;1.4;0.7;;;;;;;15.15;42.22266;941.8947;;;;
2024/02/14 12:28:08;;;;;;;1;0.5;;;;;;;15.35;42.3916;941.9931;;;;
2024/02/14 12:30:33;;;;;;;1;0.5;;;;;;;15.25;41.37793;941.8586;;;;
2024/02/14 12:34:14;;;;;;;0.4;0.4;;;;;;;15.29;41.60156;941.8024;;;;
2024/02/14 12:36:40;;;;;;;0.6;0.6;;;;;;;15.34;41.08594;941.8295;;;;
2024/02/14 12:39:04;;;;;;;0.5;0.4;;;;;;;15.35;41.66406;941.7838;;;;
2024/02/14 12:41:29;;;;;;;2.5;0.8;;;;;;;15.52;41.10449;941.8572;;;;
2024/02/14 12:43:55;;;;;;;1.1;0.5;;;;;;;15.52;41.08008;941.8549;;;;
2024/02/14 12:46:20;;;;;;;0.4;0.4;;;;;;;15.38;41.1123;941.7275;;;;
2024/02/14 12:48:45;;;;;;;0.5;0.4;;;;;;;15.46;41.10938;941.6713;;;;
2024/02/14 12:51:10;;;;;;;0.6;0.6;;;;;;;15.52;41.71582;941.7256;;;;
2024/02/14 12:53:35;;;;;;;0.9;0.4;;;;;;;15.52;41.48535;941.6943;;;;
2024/02/14 12:56:00;;;;;;;1.8;0.4;;;;;;;15.52;41.23145;941.7031;;;;
2024/02/14 12:58:25;;;;;;;0.6;0.4;;;;;;;15.61;40.9502;941.7408;;;;
2024/02/14 13:00:50;;;;;;;2;0.5;;;;;;;15.63;41.20703;941.6984;;;;
2024/02/14 13:03:15;;;;;;;1.7;0.5;;;;;;;15.71;41.58301;941.7094;;;;
2024/02/14 13:05:41;;;;;;;0.7;0.6;;;;;;;15.81;40.72559;941.7442;;;;
2024/02/14 13:08:05;;;;;;;1.5;0.4;;;;;;;15.91;40.76953;941.6259;;;;
2024/02/14 13:10:31;;;;;;;1.2;0.6;;;;;;;15.96;41.41113;941.7838;;;;
2024/02/14 13:12:56;;;;;;;0.3;0.3;;;;;;;16.03;40.6084;941.7733;;;;
2024/02/14 13:15:21;;;;;;;0.4;0.3;;;;;;;15.91;41.77539;941.7416;;;;
2024/02/14 13:17:47;;;;;;;0.2;0.2;;;;;;;15.79;41.88086;941.692;;;;
2024/02/14 13:20:11;;;;;;;0.4;0.3;;;;;;;15.68;42.28516;941.6533;;;;
2024/02/14 13:22:36;;;;;;;0.3;0.3;;;;;;;15.57;42.11328;941.6628;;;;
2024/02/14 13:25:02;;;;;;;0.3;0.3;;;;;;;15.5;42.22168;941.6887;;;;
2024/02/14 13:27:27;;;;;;;0.6;0.4;;;;;;;15.63;43.28516;941.7202;;;;
2024/02/14 13:29:51;;;;;;;0.4;0.4;;;;;;;15.74;42.45215;941.7742;;;;
2024/02/14 13:32:16;;;;;;;0.6;0.3;;;;;;;15.76;41.85449;941.7308;;;;
2024/02/14 13:34:42;;;;;;;0.3;0.3;;;;;;;15.76;42.08496;941.6914;;;;
2024/02/14 13:37:09;;;;;;;0.3;0.3;;;;;;;15.72;41.57129;941.7583;;;;
2024/02/14 13:39:32;;;;;;;0.7;0.4;;;;;;;15.65;42.53711;941.7153;;;;
2024/02/14 13:41:59;;;;;;;0.8;0.8;;;;;;;15.76;42.38574;941.7548;;;;
2024/02/14 13:44:22;;;;;;;0.9;0.8;;;;;;;15.87;41.94531;941.72;;;;
2024/02/14 13:46:50;;;;;;;0.4;0.4;;;;;;;15.65;42.80273;941.6847;;;;
2024/02/14 13:49:17;;;;;;;1.9;0.7;;;;;;;15.64;42.58203;941.7996;;;;
2024/02/14 13:51:37;;;;;;;0.8;0.8;;;;;;;15.72;42.77539;941.735;;;;
2024/02/14 13:54:03;;;;;;;0.6;0.5;;;;;;;15.61;42.54297;941.6863;;;;
2024/02/14 13:56:28;;;;;;;0.4;0.4;;;;;;;15.57;43.92578;941.7294;;;;
2024/02/14 13:58:53;;;;;;;1.8;0.6;;;;;;;15.5;43.41113;941.7626;;;;
2024/02/14 14:01:18;;;;;;;0.7;0.6;;;;;;;15.58;42.7832;941.825;;;;
2024/02/14 14:03:43;;;;;;;0.4;0.4;;;;;;;15.59;42.81836;941.7827;;;;
2024/02/14 14:06:08;;;;;;;1.5;0.5;;;;;;;15.52;43.17188;941.7947;;;;
2024/02/14 14:08:33;;;;;;;1.3;0.5;;;;;;;15.6;44.02148;941.7601;;;;
2024/02/14 14:12:22;;;;;;;0.3;0.3;;;;;;;15.67;43.39355;941.7729;;;;
2024/02/14 14:14:48;;;;;;;0.7;0.3;;;;;;;15.61;43.11133;941.8459;;;;
2024/02/14 14:17:12;;;;;;;0.4;0.4;;;;;;;15.61;43.82617;941.8203;;;;
2024/02/14 14:19:37;;;;;;;1.3;0.4;;;;;;;15.58;43.11914;941.8169;;;;
2024/02/14 14:22:02;;;;;;;0.4;0.4;;;;;;;15.66;43.30078;941.8019;;;;
2024/02/14 14:24:31;;;;;;;0.6;0.3;;;;;;;15.63;43.40039;941.8101;;;;